<?xml version="1.0" encoding="UTF-8" standalone="no" ?>
<gpx xmlns="http://www.topografix.com/GPX/1/1" xmlns:xsi="http://www.w3.org/2001/XMLSchema-instance" xsi:schemaLocation="http://www.topografix.com/GPX/1/1 http://www.topografix.com/GPX/1/1/gpx.xsd" version="1.1" creator="VisuGPX - https://www.visugpx.com">
  <metadata>
    <name>Les Assions, Eglise de Payzac et Chapelle Ste-Appolonie</name>
    <desc><![CDATA[Une variante de "Les Assions Pont de la Boutonette Payzac" qui passe par église et chapelle.]]></desc>
  </metadata>
  <wpt lat="44.42126" lon="4.17375">
    <ele>272</ele>
    <name><![CDATA[Point de passage 1]]></name>
    <type><![CDATA[GENERIC]]></type>
  </wpt>
  <wpt lat="44.42142" lon="4.17384">
    <ele>263</ele>
    <name><![CDATA[Point de passage 2]]></name>
    <type><![CDATA[GENERIC]]></type>
  </wpt>
  <trk>
    <name><![CDATA[Les Assions, Eglise de Payzac et chapelle Ste-Appolonie]]></name>
    <trkseg>
      <trkpt lat="44.42126" lon="4.17375">
        <ele>272</ele>
        <time>2025-10-01T07:14:10.000Z</time>
      </trkpt>
      <trkpt lat="44.42125" lon="4.17372">
        <ele>272</ele>
        <time>2025-10-01T07:14:12.000Z</time>
      </trkpt>
      <trkpt lat="44.42116" lon="4.17357">
        <ele>267</ele>
        <time>2025-10-01T07:14:32.000Z</time>
      </trkpt>
      <trkpt lat="44.42129" lon="4.17375">
        <ele>269</ele>
        <time>2025-10-01T07:15:04.000Z</time>
      </trkpt>
      <trkpt lat="44.42149" lon="4.1739">
        <ele>270</ele>
        <time>2025-10-01T07:15:22.000Z</time>
      </trkpt>
      <trkpt lat="44.42168" lon="4.17407">
        <ele>270</ele>
        <time>2025-10-01T07:15:42.000Z</time>
      </trkpt>
      <trkpt lat="44.42187" lon="4.17424">
        <ele>270</ele>
        <time>2025-10-01T07:16:00.000Z</time>
      </trkpt>
      <trkpt lat="44.42206" lon="4.17441">
        <ele>270</ele>
        <time>2025-10-01T07:16:20.000Z</time>
      </trkpt>
      <trkpt lat="44.42227" lon="4.17455">
        <ele>270</ele>
        <time>2025-10-01T07:16:38.000Z</time>
      </trkpt>
      <trkpt lat="44.42249" lon="4.17467">
        <ele>269</ele>
        <time>2025-10-01T07:16:56.000Z</time>
      </trkpt>
      <trkpt lat="44.42272" lon="4.17474">
        <ele>269</ele>
        <time>2025-10-01T07:17:14.000Z</time>
      </trkpt>
      <trkpt lat="44.42295" lon="4.17481">
        <ele>268</ele>
        <time>2025-10-01T07:17:34.000Z</time>
      </trkpt>
      <trkpt lat="44.42317" lon="4.17489">
        <ele>266</ele>
        <time>2025-10-01T07:17:52.000Z</time>
      </trkpt>
      <trkpt lat="44.42336" lon="4.17504">
        <ele>264</ele>
        <time>2025-10-01T07:18:10.000Z</time>
      </trkpt>
      <trkpt lat="44.42356" lon="4.17522">
        <ele>261</ele>
        <time>2025-10-01T07:18:30.000Z</time>
      </trkpt>
      <trkpt lat="44.42375" lon="4.17541">
        <ele>258</ele>
        <time>2025-10-01T07:18:52.000Z</time>
      </trkpt>
      <trkpt lat="44.42392" lon="4.17561">
        <ele>255</ele>
        <time>2025-10-01T07:19:10.000Z</time>
      </trkpt>
      <trkpt lat="44.42402" lon="4.17591">
        <ele>252</ele>
        <time>2025-10-01T07:19:32.000Z</time>
      </trkpt>
      <trkpt lat="44.42401" lon="4.17622">
        <ele>249</ele>
        <time>2025-10-01T07:19:54.000Z</time>
      </trkpt>
      <trkpt lat="44.42398" lon="4.17654">
        <ele>245</ele>
        <time>2025-10-01T07:20:16.000Z</time>
      </trkpt>
      <trkpt lat="44.42395" lon="4.17686">
        <ele>241</ele>
        <time>2025-10-01T07:20:38.000Z</time>
      </trkpt>
      <trkpt lat="44.42386" lon="4.17716">
        <ele>237</ele>
        <time>2025-10-01T07:21:02.000Z</time>
      </trkpt>
      <trkpt lat="44.42373" lon="4.17743">
        <ele>233</ele>
        <time>2025-10-01T07:21:32.000Z</time>
      </trkpt>
      <trkpt lat="44.4236" lon="4.17763">
        <ele>229</ele>
        <time>2025-10-01T07:21:52.000Z</time>
      </trkpt>
      <trkpt lat="44.42377" lon="4.1777">
        <ele>227</ele>
        <time>2025-10-01T07:22:46.000Z</time>
      </trkpt>
      <trkpt lat="44.42398" lon="4.17762">
        <ele>224</ele>
        <time>2025-10-01T07:23:06.000Z</time>
      </trkpt>
      <trkpt lat="44.4242" lon="4.1775">
        <ele>222</ele>
        <time>2025-10-01T07:23:24.000Z</time>
      </trkpt>
      <trkpt lat="44.42443" lon="4.17747">
        <ele>219</ele>
        <time>2025-10-01T07:23:46.000Z</time>
      </trkpt>
      <trkpt lat="44.42466" lon="4.17752">
        <ele>217</ele>
        <time>2025-10-01T07:24:08.000Z</time>
      </trkpt>
      <trkpt lat="44.4249" lon="4.17754">
        <ele>215</ele>
        <time>2025-10-01T07:24:30.000Z</time>
      </trkpt>
      <trkpt lat="44.42513" lon="4.17753">
        <ele>213</ele>
        <time>2025-10-01T07:24:48.000Z</time>
      </trkpt>
      <trkpt lat="44.42533" lon="4.17739">
        <ele>212</ele>
        <time>2025-10-01T07:25:10.000Z</time>
      </trkpt>
      <trkpt lat="44.42547" lon="4.17714">
        <ele>211</ele>
        <time>2025-10-01T07:25:36.000Z</time>
      </trkpt>
      <trkpt lat="44.42561" lon="4.17689">
        <ele>211</ele>
        <time>2025-10-01T07:28:12.000Z</time>
      </trkpt>
      <trkpt lat="44.42576" lon="4.17667">
        <ele>211</ele>
        <time>2025-10-01T07:28:34.000Z</time>
      </trkpt>
      <trkpt lat="44.42593" lon="4.17645">
        <ele>212</ele>
        <time>2025-10-01T07:28:58.000Z</time>
      </trkpt>
      <trkpt lat="44.42609" lon="4.17623">
        <ele>212</ele>
        <time>2025-10-01T07:29:16.000Z</time>
      </trkpt>
      <trkpt lat="44.42626" lon="4.176">
        <ele>213</ele>
        <time>2025-10-01T07:29:44.000Z</time>
      </trkpt>
      <trkpt lat="44.42644" lon="4.17585">
        <ele>213</ele>
        <time>2025-10-01T07:30:12.000Z</time>
      </trkpt>
      <trkpt lat="44.42659" lon="4.176">
        <ele>213</ele>
        <time>2025-10-01T07:31:06.000Z</time>
      </trkpt>
      <trkpt lat="44.42675" lon="4.17584">
        <ele>215</ele>
        <time>2025-10-01T07:31:36.000Z</time>
      </trkpt>
      <trkpt lat="44.42691" lon="4.17564">
        <ele>217</ele>
        <time>2025-10-01T07:32:12.000Z</time>
      </trkpt>
      <trkpt lat="44.4271" lon="4.17544">
        <ele>219</ele>
        <time>2025-10-01T07:32:42.000Z</time>
      </trkpt>
      <trkpt lat="44.42728" lon="4.17525">
        <ele>223</ele>
        <time>2025-10-01T07:33:10.000Z</time>
      </trkpt>
      <trkpt lat="44.42746" lon="4.17505">
        <ele>228</ele>
        <time>2025-10-01T07:33:46.000Z</time>
      </trkpt>
      <trkpt lat="44.42761" lon="4.17479">
        <ele>233</ele>
        <time>2025-10-01T07:34:22.000Z</time>
      </trkpt>
      <trkpt lat="44.42779" lon="4.17464">
        <ele>238</ele>
        <time>2025-10-01T07:34:54.000Z</time>
      </trkpt>
      <trkpt lat="44.42802" lon="4.17469">
        <ele>242</ele>
        <time>2025-10-01T07:35:44.000Z</time>
      </trkpt>
      <trkpt lat="44.42819" lon="4.17486">
        <ele>246</ele>
        <time>2025-10-01T07:36:44.000Z</time>
      </trkpt>
      <trkpt lat="44.42821" lon="4.1751">
        <ele>250</ele>
        <time>2025-10-01T07:37:04.000Z</time>
      </trkpt>
      <trkpt lat="44.42839" lon="4.17502">
        <ele>253</ele>
        <time>2025-10-01T07:37:52.000Z</time>
      </trkpt>
      <trkpt lat="44.42858" lon="4.17485">
        <ele>257</ele>
        <time>2025-10-01T07:38:16.000Z</time>
      </trkpt>
      <trkpt lat="44.42878" lon="4.1747">
        <ele>260</ele>
        <time>2025-10-01T07:38:38.000Z</time>
      </trkpt>
      <trkpt lat="44.429" lon="4.17463">
        <ele>263</ele>
        <time>2025-10-01T07:39:04.000Z</time>
      </trkpt>
      <trkpt lat="44.42922" lon="4.17454">
        <ele>266</ele>
        <time>2025-10-01T07:39:28.000Z</time>
      </trkpt>
      <trkpt lat="44.42945" lon="4.17448">
        <ele>269</ele>
        <time>2025-10-01T07:39:50.000Z</time>
      </trkpt>
      <trkpt lat="44.42966" lon="4.17435">
        <ele>272</ele>
        <time>2025-10-01T07:40:16.000Z</time>
      </trkpt>
      <trkpt lat="44.42988" lon="4.17431">
        <ele>275</ele>
        <time>2025-10-01T07:41:02.000Z</time>
      </trkpt>
      <trkpt lat="44.4301" lon="4.17424">
        <ele>278</ele>
        <time>2025-10-01T07:43:30.000Z</time>
      </trkpt>
      <trkpt lat="44.43032" lon="4.17416">
        <ele>280</ele>
        <time>2025-10-01T07:43:56.000Z</time>
      </trkpt>
      <trkpt lat="44.43055" lon="4.17412">
        <ele>282</ele>
        <time>2025-10-01T07:44:24.000Z</time>
      </trkpt>
      <trkpt lat="44.43078" lon="4.17406">
        <ele>284</ele>
        <time>2025-10-01T07:44:46.000Z</time>
      </trkpt>
      <trkpt lat="44.43101" lon="4.17404">
        <ele>286</ele>
        <time>2025-10-01T07:45:14.000Z</time>
      </trkpt>
      <trkpt lat="44.43122" lon="4.17394">
        <ele>289</ele>
        <time>2025-10-01T07:45:38.000Z</time>
      </trkpt>
      <trkpt lat="44.43136" lon="4.17371">
        <ele>292</ele>
        <time>2025-10-01T07:46:10.000Z</time>
      </trkpt>
      <trkpt lat="44.43151" lon="4.17348">
        <ele>296</ele>
        <time>2025-10-01T07:46:32.000Z</time>
      </trkpt>
      <trkpt lat="44.43171" lon="4.17334">
        <ele>299</ele>
        <time>2025-10-01T07:47:06.000Z</time>
      </trkpt>
      <trkpt lat="44.43192" lon="4.17331">
        <ele>302</ele>
        <time>2025-10-01T07:47:50.000Z</time>
      </trkpt>
      <trkpt lat="44.43208" lon="4.1731">
        <ele>305</ele>
        <time>2025-10-01T07:48:34.000Z</time>
      </trkpt>
      <trkpt lat="44.43228" lon="4.17294">
        <ele>308</ele>
        <time>2025-10-01T07:49:10.000Z</time>
      </trkpt>
      <trkpt lat="44.43251" lon="4.17285">
        <ele>310</ele>
        <time>2025-10-01T07:49:38.000Z</time>
      </trkpt>
      <trkpt lat="44.43273" lon="4.17281">
        <ele>313</ele>
        <time>2025-10-01T07:50:10.000Z</time>
      </trkpt>
      <trkpt lat="44.43295" lon="4.17286">
        <ele>315</ele>
        <time>2025-10-01T07:50:34.000Z</time>
      </trkpt>
      <trkpt lat="44.43318" lon="4.17289">
        <ele>316</ele>
        <time>2025-10-01T07:50:54.000Z</time>
      </trkpt>
      <trkpt lat="44.43339" lon="4.17283">
        <ele>318</ele>
        <time>2025-10-01T07:51:16.000Z</time>
      </trkpt>
      <trkpt lat="44.4335" lon="4.17256">
        <ele>320</ele>
        <time>2025-10-01T07:51:42.000Z</time>
      </trkpt>
      <trkpt lat="44.43365" lon="4.17236">
        <ele>323</ele>
        <time>2025-10-01T07:52:38.000Z</time>
      </trkpt>
      <trkpt lat="44.43387" lon="4.17236">
        <ele>325</ele>
        <time>2025-10-01T07:53:02.000Z</time>
      </trkpt>
      <trkpt lat="44.4341" lon="4.17235">
        <ele>327</ele>
        <time>2025-10-01T07:53:24.000Z</time>
      </trkpt>
      <trkpt lat="44.43433" lon="4.17235">
        <ele>329</ele>
        <time>2025-10-01T07:54:30.000Z</time>
      </trkpt>
      <trkpt lat="44.43456" lon="4.17238">
        <ele>331</ele>
        <time>2025-10-01T07:54:50.000Z</time>
      </trkpt>
      <trkpt lat="44.43478" lon="4.17242">
        <ele>333</ele>
        <time>2025-10-01T07:55:17.000Z</time>
      </trkpt>
      <trkpt lat="44.435" lon="4.17246">
        <ele>334</ele>
        <time>2025-10-01T07:55:44.000Z</time>
      </trkpt>
      <trkpt lat="44.43524" lon="4.1725">
        <ele>335</ele>
        <time>2025-10-01T07:56:04.000Z</time>
      </trkpt>
      <trkpt lat="44.43547" lon="4.17258">
        <ele>335</ele>
        <time>2025-10-01T07:56:24.000Z</time>
      </trkpt>
      <trkpt lat="44.43569" lon="4.17264">
        <ele>335</ele>
        <time>2025-10-01T07:56:42.000Z</time>
      </trkpt>
      <trkpt lat="44.43591" lon="4.17272">
        <ele>334</ele>
        <time>2025-10-01T07:57:02.000Z</time>
      </trkpt>
      <trkpt lat="44.43612" lon="4.17262">
        <ele>334</ele>
        <time>2025-10-01T07:57:26.000Z</time>
      </trkpt>
      <trkpt lat="44.43624" lon="4.17235">
        <ele>333</ele>
        <time>2025-10-01T07:57:46.000Z</time>
      </trkpt>
      <trkpt lat="44.43638" lon="4.17211">
        <ele>332</ele>
        <time>2025-10-01T07:58:06.000Z</time>
      </trkpt>
      <trkpt lat="44.43655" lon="4.17188">
        <ele>332</ele>
        <time>2025-10-01T07:58:28.000Z</time>
      </trkpt>
      <trkpt lat="44.43662" lon="4.17157">
        <ele>332</ele>
        <time>2025-10-01T07:58:50.000Z</time>
      </trkpt>
      <trkpt lat="44.43667" lon="4.17124">
        <ele>332</ele>
        <time>2025-10-01T07:59:10.000Z</time>
      </trkpt>
      <trkpt lat="44.4367" lon="4.17091">
        <ele>332</ele>
        <time>2025-10-01T07:59:30.000Z</time>
      </trkpt>
      <trkpt lat="44.43675" lon="4.17061">
        <ele>332</ele>
        <time>2025-10-01T07:59:50.000Z</time>
      </trkpt>
      <trkpt lat="44.43693" lon="4.17043">
        <ele>332</ele>
        <time>2025-10-01T08:00:10.000Z</time>
      </trkpt>
      <trkpt lat="44.43714" lon="4.17028">
        <ele>331</ele>
        <time>2025-10-01T08:00:30.000Z</time>
      </trkpt>
      <trkpt lat="44.43735" lon="4.17017">
        <ele>331</ele>
        <time>2025-10-01T08:00:50.000Z</time>
      </trkpt>
      <trkpt lat="44.43757" lon="4.17008">
        <ele>331</ele>
        <time>2025-10-01T08:01:16.000Z</time>
      </trkpt>
      <trkpt lat="44.4378" lon="4.17003">
        <ele>332</ele>
        <time>2025-10-01T08:01:37.000Z</time>
      </trkpt>
      <trkpt lat="44.43801" lon="4.16996">
        <ele>332</ele>
        <time>2025-10-01T08:01:56.000Z</time>
      </trkpt>
      <trkpt lat="44.4382" lon="4.16979">
        <ele>332</ele>
        <time>2025-10-01T08:02:18.000Z</time>
      </trkpt>
      <trkpt lat="44.43842" lon="4.16968">
        <ele>332</ele>
        <time>2025-10-01T08:02:42.000Z</time>
      </trkpt>
      <trkpt lat="44.43864" lon="4.1696">
        <ele>332</ele>
        <time>2025-10-01T08:03:06.000Z</time>
      </trkpt>
      <trkpt lat="44.43884" lon="4.16946">
        <ele>332</ele>
        <time>2025-10-01T08:03:26.000Z</time>
      </trkpt>
      <trkpt lat="44.43906" lon="4.16943">
        <ele>332</ele>
        <time>2025-10-01T08:03:48.000Z</time>
      </trkpt>
      <trkpt lat="44.43929" lon="4.16936">
        <ele>332</ele>
        <time>2025-10-01T08:04:06.000Z</time>
      </trkpt>
      <trkpt lat="44.43951" lon="4.16929">
        <ele>333</ele>
        <time>2025-10-01T08:04:24.000Z</time>
      </trkpt>
      <trkpt lat="44.43973" lon="4.16919">
        <ele>333</ele>
        <time>2025-10-01T08:04:44.000Z</time>
      </trkpt>
      <trkpt lat="44.43993" lon="4.16901">
        <ele>334</ele>
        <time>2025-10-01T08:05:04.000Z</time>
      </trkpt>
      <trkpt lat="44.44011" lon="4.16887">
        <ele>335</ele>
        <time>2025-10-01T08:05:28.000Z</time>
      </trkpt>
      <trkpt lat="44.4403" lon="4.16901">
        <ele>336</ele>
        <time>2025-10-01T08:05:48.000Z</time>
      </trkpt>
      <trkpt lat="44.44052" lon="4.16903">
        <ele>337</ele>
        <time>2025-10-01T08:06:10.000Z</time>
      </trkpt>
      <trkpt lat="44.4407" lon="4.16882">
        <ele>339</ele>
        <time>2025-10-01T08:06:36.000Z</time>
      </trkpt>
      <trkpt lat="44.44087" lon="4.1686">
        <ele>340</ele>
        <time>2025-10-01T08:06:58.000Z</time>
      </trkpt>
      <trkpt lat="44.44107" lon="4.16847">
        <ele>341</ele>
        <time>2025-10-01T08:07:16.000Z</time>
      </trkpt>
      <trkpt lat="44.44125" lon="4.16826">
        <ele>342</ele>
        <time>2025-10-01T08:07:38.000Z</time>
      </trkpt>
      <trkpt lat="44.44141" lon="4.16805">
        <ele>344</ele>
        <time>2025-10-01T08:08:02.000Z</time>
      </trkpt>
      <trkpt lat="44.44159" lon="4.16782">
        <ele>345</ele>
        <time>2025-10-01T08:08:22.000Z</time>
      </trkpt>
      <trkpt lat="44.44176" lon="4.16763">
        <ele>347</ele>
        <time>2025-10-01T08:08:46.000Z</time>
      </trkpt>
      <trkpt lat="44.44198" lon="4.16759">
        <ele>348</ele>
        <time>2025-10-01T08:09:50.000Z</time>
      </trkpt>
      <trkpt lat="44.44219" lon="4.16747">
        <ele>349</ele>
        <time>2025-10-01T08:10:10.000Z</time>
      </trkpt>
      <trkpt lat="44.44239" lon="4.16732">
        <ele>350</ele>
        <time>2025-10-01T08:10:28.000Z</time>
      </trkpt>
      <trkpt lat="44.44259" lon="4.16717">
        <ele>351</ele>
        <time>2025-10-01T08:10:48.000Z</time>
      </trkpt>
      <trkpt lat="44.44279" lon="4.16699">
        <ele>352</ele>
        <time>2025-10-01T08:11:14.000Z</time>
      </trkpt>
      <trkpt lat="44.44295" lon="4.16678">
        <ele>353</ele>
        <time>2025-10-01T08:11:36.000Z</time>
      </trkpt>
      <trkpt lat="44.44308" lon="4.16651">
        <ele>354</ele>
        <time>2025-10-01T08:11:58.000Z</time>
      </trkpt>
      <trkpt lat="44.44318" lon="4.16623">
        <ele>355</ele>
        <time>2025-10-01T08:12:18.000Z</time>
      </trkpt>
      <trkpt lat="44.44328" lon="4.16593">
        <ele>356</ele>
        <time>2025-10-01T08:12:42.000Z</time>
      </trkpt>
      <trkpt lat="44.44342" lon="4.16569">
        <ele>356</ele>
        <time>2025-10-01T08:13:02.000Z</time>
      </trkpt>
      <trkpt lat="44.44362" lon="4.16552">
        <ele>358</ele>
        <time>2025-10-01T08:13:22.000Z</time>
      </trkpt>
      <trkpt lat="44.44383" lon="4.16538">
        <ele>359</ele>
        <time>2025-10-01T08:13:46.000Z</time>
      </trkpt>
      <trkpt lat="44.44403" lon="4.16522">
        <ele>360</ele>
        <time>2025-10-01T08:14:10.000Z</time>
      </trkpt>
      <trkpt lat="44.44421" lon="4.16503">
        <ele>361</ele>
        <time>2025-10-01T08:14:32.000Z</time>
      </trkpt>
      <trkpt lat="44.44439" lon="4.16484">
        <ele>362</ele>
        <time>2025-10-01T08:14:54.000Z</time>
      </trkpt>
      <trkpt lat="44.44457" lon="4.16464">
        <ele>363</ele>
        <time>2025-10-01T08:15:18.000Z</time>
      </trkpt>
      <trkpt lat="44.44477" lon="4.16446">
        <ele>364</ele>
        <time>2025-10-01T08:15:42.000Z</time>
      </trkpt>
      <trkpt lat="44.44495" lon="4.16426">
        <ele>365</ele>
        <time>2025-10-01T08:16:12.000Z</time>
      </trkpt>
      <trkpt lat="44.44513" lon="4.16405">
        <ele>367</ele>
        <time>2025-10-01T08:16:36.000Z</time>
      </trkpt>
      <trkpt lat="44.44531" lon="4.16383">
        <ele>367</ele>
        <time>2025-10-01T08:17:02.000Z</time>
      </trkpt>
      <trkpt lat="44.44549" lon="4.1636">
        <ele>368</ele>
        <time>2025-10-01T08:17:44.000Z</time>
      </trkpt>
      <trkpt lat="44.44568" lon="4.16338">
        <ele>369</ele>
        <time>2025-10-01T08:18:10.000Z</time>
      </trkpt>
      <trkpt lat="44.44587" lon="4.16318">
        <ele>370</ele>
        <time>2025-10-01T08:18:30.000Z</time>
      </trkpt>
      <trkpt lat="44.44606" lon="4.16299">
        <ele>371</ele>
        <time>2025-10-01T08:18:52.000Z</time>
      </trkpt>
      <trkpt lat="44.44621" lon="4.16276">
        <ele>372</ele>
        <time>2025-10-01T08:19:14.000Z</time>
      </trkpt>
      <trkpt lat="44.44636" lon="4.16251">
        <ele>373</ele>
        <time>2025-10-01T08:19:36.000Z</time>
      </trkpt>
      <trkpt lat="44.44652" lon="4.16228">
        <ele>374</ele>
        <time>2025-10-01T08:20:00.000Z</time>
      </trkpt>
      <trkpt lat="44.44671" lon="4.16209">
        <ele>375</ele>
        <time>2025-10-01T08:20:20.000Z</time>
      </trkpt>
      <trkpt lat="44.44686" lon="4.16184">
        <ele>374</ele>
        <time>2025-10-01T08:20:42.000Z</time>
      </trkpt>
      <trkpt lat="44.44699" lon="4.16158">
        <ele>374</ele>
        <time>2025-10-01T08:21:06.000Z</time>
      </trkpt>
      <trkpt lat="44.44701" lon="4.16128">
        <ele>373</ele>
        <time>2025-10-01T08:21:48.000Z</time>
      </trkpt>
      <trkpt lat="44.44695" lon="4.16097">
        <ele>372</ele>
        <time>2025-10-01T08:22:42.000Z</time>
      </trkpt>
      <trkpt lat="44.44685" lon="4.16069">
        <ele>372</ele>
        <time>2025-10-01T08:23:02.000Z</time>
      </trkpt>
      <trkpt lat="44.44691" lon="4.16042">
        <ele>371</ele>
        <time>2025-10-01T08:23:26.000Z</time>
      </trkpt>
      <trkpt lat="44.4471" lon="4.16025">
        <ele>371</ele>
        <time>2025-10-01T08:23:50.000Z</time>
      </trkpt>
      <trkpt lat="44.44732" lon="4.16016">
        <ele>372</ele>
        <time>2025-10-01T08:24:10.000Z</time>
      </trkpt>
      <trkpt lat="44.44753" lon="4.16002">
        <ele>372</ele>
        <time>2025-10-01T08:24:40.000Z</time>
      </trkpt>
      <trkpt lat="44.44771" lon="4.15983">
        <ele>373</ele>
        <time>2025-10-01T08:25:06.000Z</time>
      </trkpt>
      <trkpt lat="44.44785" lon="4.15957">
        <ele>375</ele>
        <time>2025-10-01T08:25:30.000Z</time>
      </trkpt>
      <trkpt lat="44.44802" lon="4.15937">
        <ele>377</ele>
        <time>2025-10-01T08:25:56.000Z</time>
      </trkpt>
      <trkpt lat="44.4482" lon="4.15918">
        <ele>379</ele>
        <time>2025-10-01T08:26:22.000Z</time>
      </trkpt>
      <trkpt lat="44.44838" lon="4.15898">
        <ele>380</ele>
        <time>2025-10-01T08:26:44.000Z</time>
      </trkpt>
      <trkpt lat="44.44856" lon="4.15877">
        <ele>382</ele>
        <time>2025-10-01T08:27:06.000Z</time>
      </trkpt>
      <trkpt lat="44.44875" lon="4.15858">
        <ele>384</ele>
        <time>2025-10-01T08:27:28.000Z</time>
      </trkpt>
      <trkpt lat="44.44893" lon="4.15838">
        <ele>386</ele>
        <time>2025-10-01T08:28:44.000Z</time>
      </trkpt>
      <trkpt lat="44.4491" lon="4.15817">
        <ele>388</ele>
        <time>2025-10-01T08:29:12.000Z</time>
      </trkpt>
      <trkpt lat="44.44928" lon="4.15797">
        <ele>390</ele>
        <time>2025-10-01T08:29:46.000Z</time>
      </trkpt>
      <trkpt lat="44.44945" lon="4.1578">
        <ele>393</ele>
        <time>2025-10-01T08:30:20.000Z</time>
      </trkpt>
      <trkpt lat="44.44951" lon="4.1575">
        <ele>395</ele>
        <time>2025-10-01T08:30:46.000Z</time>
      </trkpt>
      <trkpt lat="44.44956" lon="4.15718">
        <ele>397</ele>
        <time>2025-10-01T08:31:10.000Z</time>
      </trkpt>
      <trkpt lat="44.44964" lon="4.15687">
        <ele>398</ele>
        <time>2025-10-01T08:31:30.000Z</time>
      </trkpt>
      <trkpt lat="44.4498" lon="4.15665">
        <ele>400</ele>
        <time>2025-10-01T08:31:52.000Z</time>
      </trkpt>
      <trkpt lat="44.45" lon="4.15649">
        <ele>402</ele>
        <time>2025-10-01T08:32:14.000Z</time>
      </trkpt>
      <trkpt lat="44.45019" lon="4.15634">
        <ele>403</ele>
        <time>2025-10-01T08:32:40.000Z</time>
      </trkpt>
      <trkpt lat="44.45028" lon="4.15606">
        <ele>404</ele>
        <time>2025-10-01T08:33:06.000Z</time>
      </trkpt>
      <trkpt lat="44.45033" lon="4.15583">
        <ele>403</ele>
        <time>2025-10-01T08:34:38.000Z</time>
      </trkpt>
      <trkpt lat="44.45032" lon="4.15607">
        <ele>403</ele>
        <time>2025-10-01T08:35:36.000Z</time>
      </trkpt>
      <trkpt lat="44.45048" lon="4.15626">
        <ele>403</ele>
        <time>2025-10-01T08:36:12.000Z</time>
      </trkpt>
      <trkpt lat="44.45068" lon="4.15621">
        <ele>403</ele>
        <time>2025-10-01T08:36:34.000Z</time>
      </trkpt>
      <trkpt lat="44.45076" lon="4.15593">
        <ele>403</ele>
        <time>2025-10-01T08:37:18.000Z</time>
      </trkpt>
      <trkpt lat="44.45083" lon="4.15563">
        <ele>404</ele>
        <time>2025-10-01T08:37:36.000Z</time>
      </trkpt>
      <trkpt lat="44.45093" lon="4.15535">
        <ele>405</ele>
        <time>2025-10-01T08:37:56.000Z</time>
      </trkpt>
      <trkpt lat="44.45105" lon="4.15506">
        <ele>406</ele>
        <time>2025-10-01T08:38:18.000Z</time>
      </trkpt>
      <trkpt lat="44.45111" lon="4.15476">
        <ele>406</ele>
        <time>2025-10-01T08:38:40.000Z</time>
      </trkpt>
      <trkpt lat="44.45116" lon="4.15446">
        <ele>407</ele>
        <time>2025-10-01T08:39:00.000Z</time>
      </trkpt>
      <trkpt lat="44.45124" lon="4.15415">
        <ele>407</ele>
        <time>2025-10-01T08:39:22.000Z</time>
      </trkpt>
      <trkpt lat="44.45141" lon="4.15395">
        <ele>408</ele>
        <time>2025-10-01T08:39:46.000Z</time>
      </trkpt>
      <trkpt lat="44.45162" lon="4.15395">
        <ele>410</ele>
        <time>2025-10-01T08:40:10.000Z</time>
      </trkpt>
      <trkpt lat="44.45183" lon="4.1541">
        <ele>412</ele>
        <time>2025-10-01T08:40:36.000Z</time>
      </trkpt>
      <trkpt lat="44.45203" lon="4.15425">
        <ele>414</ele>
        <time>2025-10-01T08:40:58.000Z</time>
      </trkpt>
      <trkpt lat="44.45222" lon="4.15439">
        <ele>417</ele>
        <time>2025-10-01T08:41:20.000Z</time>
      </trkpt>
      <trkpt lat="44.45244" lon="4.15439">
        <ele>419</ele>
        <time>2025-10-01T08:42:00.000Z</time>
      </trkpt>
      <trkpt lat="44.45263" lon="4.15424">
        <ele>421</ele>
        <time>2025-10-01T08:42:34.000Z</time>
      </trkpt>
      <trkpt lat="44.45285" lon="4.15422">
        <ele>423</ele>
        <time>2025-10-01T08:43:04.000Z</time>
      </trkpt>
      <trkpt lat="44.45306" lon="4.15414">
        <ele>426</ele>
        <time>2025-10-01T08:43:40.000Z</time>
      </trkpt>
      <trkpt lat="44.45321" lon="4.1539">
        <ele>428</ele>
        <time>2025-10-01T08:44:04.000Z</time>
      </trkpt>
      <trkpt lat="44.45331" lon="4.15361">
        <ele>430</ele>
        <time>2025-10-01T08:44:34.000Z</time>
      </trkpt>
      <trkpt lat="44.45329" lon="4.15329">
        <ele>430</ele>
        <time>2025-10-01T08:45:26.000Z</time>
      </trkpt>
      <trkpt lat="44.45319" lon="4.15301">
        <ele>430</ele>
        <time>2025-10-01T08:46:28.000Z</time>
      </trkpt>
      <trkpt lat="44.45299" lon="4.15287">
        <ele>429</ele>
        <time>2025-10-01T08:47:08.000Z</time>
      </trkpt>
      <trkpt lat="44.45277" lon="4.15279">
        <ele>428</ele>
        <time>2025-10-01T08:47:32.000Z</time>
      </trkpt>
      <trkpt lat="44.45254" lon="4.15283">
        <ele>427</ele>
        <time>2025-10-01T08:47:54.000Z</time>
      </trkpt>
      <trkpt lat="44.45232" lon="4.15286">
        <ele>427</ele>
        <time>2025-10-01T08:48:14.000Z</time>
      </trkpt>
      <trkpt lat="44.45211" lon="4.15274">
        <ele>427</ele>
        <time>2025-10-01T08:48:36.000Z</time>
      </trkpt>
      <trkpt lat="44.45193" lon="4.15255">
        <ele>427</ele>
        <time>2025-10-01T08:48:56.000Z</time>
      </trkpt>
      <trkpt lat="44.45172" lon="4.15242">
        <ele>427</ele>
        <time>2025-10-01T08:49:14.000Z</time>
      </trkpt>
      <trkpt lat="44.45149" lon="4.15234">
        <ele>427</ele>
        <time>2025-10-01T08:49:34.000Z</time>
      </trkpt>
      <trkpt lat="44.45127" lon="4.15226">
        <ele>426</ele>
        <time>2025-10-01T08:49:54.000Z</time>
      </trkpt>
      <trkpt lat="44.45105" lon="4.15214">
        <ele>426</ele>
        <time>2025-10-01T08:50:14.000Z</time>
      </trkpt>
      <trkpt lat="44.45083" lon="4.15204">
        <ele>426</ele>
        <time>2025-10-01T08:50:34.000Z</time>
      </trkpt>
      <trkpt lat="44.4506" lon="4.15196">
        <ele>425</ele>
        <time>2025-10-01T08:50:54.000Z</time>
      </trkpt>
      <trkpt lat="44.4504" lon="4.15181">
        <ele>423</ele>
        <time>2025-10-01T08:51:14.000Z</time>
      </trkpt>
      <trkpt lat="44.45026" lon="4.15155">
        <ele>422</ele>
        <time>2025-10-01T08:51:34.000Z</time>
      </trkpt>
      <trkpt lat="44.45008" lon="4.15136">
        <ele>420</ele>
        <time>2025-10-01T08:51:54.000Z</time>
      </trkpt>
      <trkpt lat="44.44992" lon="4.15112">
        <ele>419</ele>
        <time>2025-10-01T08:52:16.000Z</time>
      </trkpt>
      <trkpt lat="44.44979" lon="4.15087">
        <ele>418</ele>
        <time>2025-10-01T08:52:34.000Z</time>
      </trkpt>
      <trkpt lat="44.44964" lon="4.15064">
        <ele>416</ele>
        <time>2025-10-01T08:52:52.000Z</time>
      </trkpt>
      <trkpt lat="44.44947" lon="4.15042">
        <ele>414</ele>
        <time>2025-10-01T08:53:12.000Z</time>
      </trkpt>
      <trkpt lat="44.44932" lon="4.15018">
        <ele>412</ele>
        <time>2025-10-01T08:53:52.000Z</time>
      </trkpt>
      <trkpt lat="44.44925" lon="4.14989">
        <ele>409</ele>
        <time>2025-10-01T08:54:34.000Z</time>
      </trkpt>
      <trkpt lat="44.44915" lon="4.14961">
        <ele>407</ele>
        <time>2025-10-01T08:55:14.000Z</time>
      </trkpt>
      <trkpt lat="44.44899" lon="4.1494">
        <ele>404</ele>
        <time>2025-10-01T08:55:46.000Z</time>
      </trkpt>
      <trkpt lat="44.44877" lon="4.14932">
        <ele>402</ele>
        <time>2025-10-01T08:56:06.000Z</time>
      </trkpt>
      <trkpt lat="44.44857" lon="4.14916">
        <ele>400</ele>
        <time>2025-10-01T08:56:30.000Z</time>
      </trkpt>
      <trkpt lat="44.44837" lon="4.14896">
        <ele>397</ele>
        <time>2025-10-01T08:56:56.000Z</time>
      </trkpt>
      <trkpt lat="44.44818" lon="4.14879">
        <ele>394</ele>
        <time>2025-10-01T08:57:16.000Z</time>
      </trkpt>
      <trkpt lat="44.44798" lon="4.14863">
        <ele>392</ele>
        <time>2025-10-01T08:57:40.000Z</time>
      </trkpt>
      <trkpt lat="44.44781" lon="4.14843">
        <ele>390</ele>
        <time>2025-10-01T08:58:04.000Z</time>
      </trkpt>
      <trkpt lat="44.4477" lon="4.14814">
        <ele>387</ele>
        <time>2025-10-01T08:58:30.000Z</time>
      </trkpt>
      <trkpt lat="44.44763" lon="4.14782">
        <ele>385</ele>
        <time>2025-10-01T08:58:54.000Z</time>
      </trkpt>
      <trkpt lat="44.44759" lon="4.14751">
        <ele>383</ele>
        <time>2025-10-01T08:59:24.000Z</time>
      </trkpt>
      <trkpt lat="44.44753" lon="4.14719">
        <ele>382</ele>
        <time>2025-10-01T08:59:50.000Z</time>
      </trkpt>
      <trkpt lat="44.44745" lon="4.14694">
        <ele>381</ele>
        <time>2025-10-01T09:00:20.000Z</time>
      </trkpt>
      <trkpt lat="44.44728" lon="4.14706">
        <ele>382</ele>
        <time>2025-10-01T09:01:10.000Z</time>
      </trkpt>
      <trkpt lat="44.44709" lon="4.14724">
        <ele>384</ele>
        <time>2025-10-01T09:01:38.000Z</time>
      </trkpt>
      <trkpt lat="44.44694" lon="4.14748">
        <ele>385</ele>
        <time>2025-10-01T09:02:08.000Z</time>
      </trkpt>
      <trkpt lat="44.4468" lon="4.14774">
        <ele>387</ele>
        <time>2025-10-01T09:02:46.000Z</time>
      </trkpt>
      <trkpt lat="44.44669" lon="4.14803">
        <ele>389</ele>
        <time>2025-10-01T09:03:20.000Z</time>
      </trkpt>
      <trkpt lat="44.44656" lon="4.14829">
        <ele>389</ele>
        <time>2025-10-01T09:04:08.000Z</time>
      </trkpt>
      <trkpt lat="44.44641" lon="4.14852">
        <ele>390</ele>
        <time>2025-10-01T09:04:30.000Z</time>
      </trkpt>
      <trkpt lat="44.44625" lon="4.14875">
        <ele>392</ele>
        <time>2025-10-01T09:04:56.000Z</time>
      </trkpt>
      <trkpt lat="44.44611" lon="4.149">
        <ele>393</ele>
        <time>2025-10-01T09:05:26.000Z</time>
      </trkpt>
      <trkpt lat="44.44591" lon="4.14915">
        <ele>396</ele>
        <time>2025-10-01T09:05:50.000Z</time>
      </trkpt>
      <trkpt lat="44.44571" lon="4.14927">
        <ele>399</ele>
        <time>2025-10-01T09:06:22.000Z</time>
      </trkpt>
      <trkpt lat="44.44553" lon="4.14947">
        <ele>402</ele>
        <time>2025-10-01T09:06:52.000Z</time>
      </trkpt>
      <trkpt lat="44.44538" lon="4.14972">
        <ele>404</ele>
        <time>2025-10-01T09:07:16.000Z</time>
      </trkpt>
      <trkpt lat="44.44524" lon="4.14997">
        <ele>406</ele>
        <time>2025-10-01T09:07:34.000Z</time>
      </trkpt>
      <trkpt lat="44.44508" lon="4.1502">
        <ele>407</ele>
        <time>2025-10-01T09:08:10.000Z</time>
      </trkpt>
      <trkpt lat="44.44492" lon="4.15041">
        <ele>409</ele>
        <time>2025-10-01T09:08:40.000Z</time>
      </trkpt>
      <trkpt lat="44.44472" lon="4.1504">
        <ele>411</ele>
        <time>2025-10-01T09:09:06.000Z</time>
      </trkpt>
      <trkpt lat="44.44453" lon="4.15054">
        <ele>412</ele>
        <time>2025-10-01T09:09:28.000Z</time>
      </trkpt>
      <trkpt lat="44.44433" lon="4.1507">
        <ele>414</ele>
        <time>2025-10-01T09:09:50.000Z</time>
      </trkpt>
      <trkpt lat="44.44412" lon="4.15081">
        <ele>415</ele>
        <time>2025-10-01T09:10:14.000Z</time>
      </trkpt>
      <trkpt lat="44.4439" lon="4.15088">
        <ele>416</ele>
        <time>2025-10-01T09:10:40.000Z</time>
      </trkpt>
      <trkpt lat="44.44367" lon="4.15092">
        <ele>417</ele>
        <time>2025-10-01T09:11:02.000Z</time>
      </trkpt>
      <trkpt lat="44.44344" lon="4.15086">
        <ele>417</ele>
        <time>2025-10-01T09:11:24.000Z</time>
      </trkpt>
      <trkpt lat="44.44324" lon="4.15074">
        <ele>419</ele>
        <time>2025-10-01T09:11:48.000Z</time>
      </trkpt>
      <trkpt lat="44.44307" lon="4.15054">
        <ele>420</ele>
        <time>2025-10-01T09:12:12.000Z</time>
      </trkpt>
      <trkpt lat="44.44293" lon="4.15028">
        <ele>420</ele>
        <time>2025-10-01T09:12:36.000Z</time>
      </trkpt>
      <trkpt lat="44.44281" lon="4.15001">
        <ele>420</ele>
        <time>2025-10-01T09:12:58.000Z</time>
      </trkpt>
      <trkpt lat="44.44261" lon="4.14991">
        <ele>418</ele>
        <time>2025-10-01T09:13:22.000Z</time>
      </trkpt>
      <trkpt lat="44.44243" lon="4.15008">
        <ele>417</ele>
        <time>2025-10-01T09:16:28.000Z</time>
      </trkpt>
      <trkpt lat="44.44224" lon="4.15028">
        <ele>415</ele>
        <time>2025-10-01T09:16:50.000Z</time>
      </trkpt>
      <trkpt lat="44.44205" lon="4.15046">
        <ele>414</ele>
        <time>2025-10-01T09:17:16.000Z</time>
      </trkpt>
      <trkpt lat="44.44187" lon="4.15064">
        <ele>412</ele>
        <time>2025-10-01T09:17:34.000Z</time>
      </trkpt>
      <trkpt lat="44.44168" lon="4.15085">
        <ele>410</ele>
        <time>2025-10-01T09:17:55.000Z</time>
      </trkpt>
      <trkpt lat="44.44151" lon="4.15107">
        <ele>408</ele>
        <time>2025-10-01T09:18:18.000Z</time>
      </trkpt>
      <trkpt lat="44.44138" lon="4.15133">
        <ele>405</ele>
        <time>2025-10-01T09:18:36.000Z</time>
      </trkpt>
      <trkpt lat="44.44127" lon="4.1516">
        <ele>402</ele>
        <time>2025-10-01T09:18:54.000Z</time>
      </trkpt>
      <trkpt lat="44.44122" lon="4.1519">
        <ele>399</ele>
        <time>2025-10-01T09:19:18.000Z</time>
      </trkpt>
      <trkpt lat="44.44105" lon="4.15205">
        <ele>395</ele>
        <time>2025-10-01T09:20:08.000Z</time>
      </trkpt>
      <trkpt lat="44.44094" lon="4.15232">
        <ele>392</ele>
        <time>2025-10-01T09:20:36.000Z</time>
      </trkpt>
      <trkpt lat="44.44083" lon="4.15261">
        <ele>388</ele>
        <time>2025-10-01T09:21:06.000Z</time>
      </trkpt>
      <trkpt lat="44.44066" lon="4.15281">
        <ele>385</ele>
        <time>2025-10-01T09:21:26.000Z</time>
      </trkpt>
      <trkpt lat="44.44046" lon="4.15296">
        <ele>382</ele>
        <time>2025-10-01T09:22:43.000Z</time>
      </trkpt>
      <trkpt lat="44.44025" lon="4.15312">
        <ele>378</ele>
        <time>2025-10-01T09:23:11.000Z</time>
      </trkpt>
      <trkpt lat="44.44006" lon="4.15331">
        <ele>375</ele>
        <time>2025-10-01T09:23:33.000Z</time>
      </trkpt>
      <trkpt lat="44.43986" lon="4.15348">
        <ele>372</ele>
        <time>2025-10-01T09:23:57.000Z</time>
      </trkpt>
      <trkpt lat="44.43965" lon="4.15361">
        <ele>369</ele>
        <time>2025-10-01T09:24:17.000Z</time>
      </trkpt>
      <trkpt lat="44.43944" lon="4.15376">
        <ele>366</ele>
        <time>2025-10-01T09:24:41.000Z</time>
      </trkpt>
      <trkpt lat="44.43924" lon="4.15391">
        <ele>363</ele>
        <time>2025-10-01T09:25:01.000Z</time>
      </trkpt>
      <trkpt lat="44.43903" lon="4.15404">
        <ele>361</ele>
        <time>2025-10-01T09:25:19.000Z</time>
      </trkpt>
      <trkpt lat="44.43883" lon="4.1542">
        <ele>358</ele>
        <time>2025-10-01T09:25:39.000Z</time>
      </trkpt>
      <trkpt lat="44.43862" lon="4.15437">
        <ele>356</ele>
        <time>2025-10-01T09:25:59.000Z</time>
      </trkpt>
      <trkpt lat="44.43842" lon="4.15453">
        <ele>354</ele>
        <time>2025-10-01T09:26:19.000Z</time>
      </trkpt>
      <trkpt lat="44.43822" lon="4.1547">
        <ele>352</ele>
        <time>2025-10-01T09:26:41.000Z</time>
      </trkpt>
      <trkpt lat="44.43801" lon="4.15486">
        <ele>351</ele>
        <time>2025-10-01T09:27:01.000Z</time>
      </trkpt>
      <trkpt lat="44.43781" lon="4.15504">
        <ele>350</ele>
        <time>2025-10-01T09:27:21.000Z</time>
      </trkpt>
      <trkpt lat="44.43763" lon="4.15524">
        <ele>349</ele>
        <time>2025-10-01T09:27:43.000Z</time>
      </trkpt>
      <trkpt lat="44.43747" lon="4.15546">
        <ele>348</ele>
        <time>2025-10-01T09:28:01.000Z</time>
      </trkpt>
      <trkpt lat="44.43731" lon="4.1557">
        <ele>347</ele>
        <time>2025-10-01T09:28:19.000Z</time>
      </trkpt>
      <trkpt lat="44.43713" lon="4.1559">
        <ele>345</ele>
        <time>2025-10-01T09:28:37.000Z</time>
      </trkpt>
      <trkpt lat="44.43697" lon="4.15614">
        <ele>344</ele>
        <time>2025-10-01T09:28:57.000Z</time>
      </trkpt>
      <trkpt lat="44.43682" lon="4.15639">
        <ele>343</ele>
        <time>2025-10-01T09:29:15.000Z</time>
      </trkpt>
      <trkpt lat="44.43666" lon="4.15662">
        <ele>342</ele>
        <time>2025-10-01T09:29:39.000Z</time>
      </trkpt>
      <trkpt lat="44.4365" lon="4.15684">
        <ele>342</ele>
        <time>2025-10-01T09:29:55.000Z</time>
      </trkpt>
      <trkpt lat="44.43634" lon="4.15709">
        <ele>341</ele>
        <time>2025-10-01T09:30:15.000Z</time>
      </trkpt>
      <trkpt lat="44.43625" lon="4.15738">
        <ele>340</ele>
        <time>2025-10-01T09:31:17.000Z</time>
      </trkpt>
      <trkpt lat="44.43619" lon="4.1577">
        <ele>337</ele>
        <time>2025-10-01T09:31:39.000Z</time>
      </trkpt>
      <trkpt lat="44.43607" lon="4.15796">
        <ele>335</ele>
        <time>2025-10-01T09:31:59.000Z</time>
      </trkpt>
      <trkpt lat="44.43593" lon="4.15821">
        <ele>332</ele>
        <time>2025-10-01T09:32:19.000Z</time>
      </trkpt>
      <trkpt lat="44.43579" lon="4.15845">
        <ele>330</ele>
        <time>2025-10-01T09:32:41.000Z</time>
      </trkpt>
      <trkpt lat="44.43566" lon="4.15871">
        <ele>327</ele>
        <time>2025-10-01T09:33:01.000Z</time>
      </trkpt>
      <trkpt lat="44.43552" lon="4.15897">
        <ele>325</ele>
        <time>2025-10-01T09:33:21.000Z</time>
      </trkpt>
      <trkpt lat="44.43533" lon="4.15918">
        <ele>323</ele>
        <time>2025-10-01T09:33:39.000Z</time>
      </trkpt>
      <trkpt lat="44.43514" lon="4.15935">
        <ele>322</ele>
        <time>2025-10-01T09:33:55.000Z</time>
      </trkpt>
      <trkpt lat="44.43494" lon="4.15953">
        <ele>321</ele>
        <time>2025-10-01T09:34:15.000Z</time>
      </trkpt>
      <trkpt lat="44.43475" lon="4.1597">
        <ele>320</ele>
        <time>2025-10-01T09:34:33.000Z</time>
      </trkpt>
      <trkpt lat="44.43454" lon="4.15984">
        <ele>319</ele>
        <time>2025-10-01T09:34:51.000Z</time>
      </trkpt>
      <trkpt lat="44.43433" lon="4.15998">
        <ele>318</ele>
        <time>2025-10-01T09:35:09.000Z</time>
      </trkpt>
      <trkpt lat="44.43412" lon="4.16014">
        <ele>318</ele>
        <time>2025-10-01T09:35:27.000Z</time>
      </trkpt>
      <trkpt lat="44.43391" lon="4.16026">
        <ele>318</ele>
        <time>2025-10-01T09:35:45.000Z</time>
      </trkpt>
      <trkpt lat="44.43369" lon="4.16033">
        <ele>317</ele>
        <time>2025-10-01T09:36:11.000Z</time>
      </trkpt>
      <trkpt lat="44.43348" lon="4.16041">
        <ele>317</ele>
        <time>2025-10-01T09:36:29.000Z</time>
      </trkpt>
      <trkpt lat="44.43325" lon="4.16049">
        <ele>316</ele>
        <time>2025-10-01T09:36:47.000Z</time>
      </trkpt>
      <trkpt lat="44.43302" lon="4.16059">
        <ele>316</ele>
        <time>2025-10-01T09:37:07.000Z</time>
      </trkpt>
      <trkpt lat="44.43279" lon="4.16066">
        <ele>315</ele>
        <time>2025-10-01T09:37:25.000Z</time>
      </trkpt>
      <trkpt lat="44.43258" lon="4.16073">
        <ele>315</ele>
        <time>2025-10-01T09:37:43.000Z</time>
      </trkpt>
      <trkpt lat="44.43235" lon="4.16079">
        <ele>314</ele>
        <time>2025-10-01T09:38:01.000Z</time>
      </trkpt>
      <trkpt lat="44.43212" lon="4.16087">
        <ele>314</ele>
        <time>2025-10-01T09:38:21.000Z</time>
      </trkpt>
      <trkpt lat="44.4319" lon="4.16094">
        <ele>313</ele>
        <time>2025-10-01T09:38:39.000Z</time>
      </trkpt>
      <trkpt lat="44.43167" lon="4.16099">
        <ele>313</ele>
        <time>2025-10-01T09:38:57.000Z</time>
      </trkpt>
      <trkpt lat="44.43145" lon="4.16103">
        <ele>313</ele>
        <time>2025-10-01T09:39:15.000Z</time>
      </trkpt>
      <trkpt lat="44.43122" lon="4.16108">
        <ele>313</ele>
        <time>2025-10-01T09:39:33.000Z</time>
      </trkpt>
      <trkpt lat="44.43099" lon="4.16107">
        <ele>313</ele>
        <time>2025-10-01T09:39:51.000Z</time>
      </trkpt>
      <trkpt lat="44.43075" lon="4.16104">
        <ele>313</ele>
        <time>2025-10-01T09:40:11.000Z</time>
      </trkpt>
      <trkpt lat="44.43053" lon="4.16098">
        <ele>313</ele>
        <time>2025-10-01T09:40:29.000Z</time>
      </trkpt>
      <trkpt lat="44.43029" lon="4.16093">
        <ele>313</ele>
        <time>2025-10-01T09:40:49.000Z</time>
      </trkpt>
      <trkpt lat="44.43006" lon="4.16092">
        <ele>313</ele>
        <time>2025-10-01T09:41:07.000Z</time>
      </trkpt>
      <trkpt lat="44.42984" lon="4.16097">
        <ele>313</ele>
        <time>2025-10-01T09:41:25.000Z</time>
      </trkpt>
      <trkpt lat="44.42962" lon="4.16104">
        <ele>313</ele>
        <time>2025-10-01T09:41:43.000Z</time>
      </trkpt>
      <trkpt lat="44.42938" lon="4.16112">
        <ele>314</ele>
        <time>2025-10-01T09:42:03.000Z</time>
      </trkpt>
      <trkpt lat="44.42916" lon="4.1612">
        <ele>314</ele>
        <time>2025-10-01T09:42:29.000Z</time>
      </trkpt>
      <trkpt lat="44.42894" lon="4.16132">
        <ele>315</ele>
        <time>2025-10-01T09:42:49.000Z</time>
      </trkpt>
      <trkpt lat="44.42882" lon="4.16155">
        <ele>315</ele>
        <time>2025-10-01T09:43:09.000Z</time>
      </trkpt>
      <trkpt lat="44.42889" lon="4.16183">
        <ele>315</ele>
        <time>2025-10-01T09:43:27.000Z</time>
      </trkpt>
      <trkpt lat="44.42894" lon="4.16211">
        <ele>315</ele>
        <time>2025-10-01T09:43:47.000Z</time>
      </trkpt>
      <trkpt lat="44.42879" lon="4.16232">
        <ele>315</ele>
        <time>2025-10-01T09:44:09.000Z</time>
      </trkpt>
      <trkpt lat="44.42859" lon="4.16249">
        <ele>315</ele>
        <time>2025-10-01T09:44:29.000Z</time>
      </trkpt>
      <trkpt lat="44.4284" lon="4.16265">
        <ele>315</ele>
        <time>2025-10-01T09:44:47.000Z</time>
      </trkpt>
      <trkpt lat="44.42829" lon="4.16291">
        <ele>316</ele>
        <time>2025-10-01T09:45:09.000Z</time>
      </trkpt>
      <trkpt lat="44.42822" lon="4.16321">
        <ele>317</ele>
        <time>2025-10-01T09:45:31.000Z</time>
      </trkpt>
      <trkpt lat="44.42807" lon="4.16344">
        <ele>317</ele>
        <time>2025-10-01T09:45:51.000Z</time>
      </trkpt>
      <trkpt lat="44.4279" lon="4.16363">
        <ele>318</ele>
        <time>2025-10-01T09:46:11.000Z</time>
      </trkpt>
      <trkpt lat="44.42769" lon="4.16368">
        <ele>317</ele>
        <time>2025-10-01T09:47:05.000Z</time>
      </trkpt>
      <trkpt lat="44.42752" lon="4.16389">
        <ele>317</ele>
        <time>2025-10-01T09:47:27.000Z</time>
      </trkpt>
      <trkpt lat="44.42739" lon="4.16417">
        <ele>317</ele>
        <time>2025-10-01T09:47:45.000Z</time>
      </trkpt>
      <trkpt lat="44.42727" lon="4.16446">
        <ele>316</ele>
        <time>2025-10-01T09:48:05.000Z</time>
      </trkpt>
      <trkpt lat="44.42714" lon="4.16472">
        <ele>315</ele>
        <time>2025-10-01T09:48:25.000Z</time>
      </trkpt>
      <trkpt lat="44.427" lon="4.16498">
        <ele>315</ele>
        <time>2025-10-01T09:48:47.000Z</time>
      </trkpt>
      <trkpt lat="44.42689" lon="4.16525">
        <ele>314</ele>
        <time>2025-10-01T09:49:03.000Z</time>
      </trkpt>
      <trkpt lat="44.4268" lon="4.16555">
        <ele>314</ele>
        <time>2025-10-01T09:49:23.000Z</time>
      </trkpt>
      <trkpt lat="44.42672" lon="4.16587">
        <ele>314</ele>
        <time>2025-10-01T09:49:43.000Z</time>
      </trkpt>
      <trkpt lat="44.42666" lon="4.16619">
        <ele>314</ele>
        <time>2025-10-01T09:50:05.000Z</time>
      </trkpt>
      <trkpt lat="44.42661" lon="4.16651">
        <ele>315</ele>
        <time>2025-10-01T09:50:23.000Z</time>
      </trkpt>
      <trkpt lat="44.4266" lon="4.16685">
        <ele>316</ele>
        <time>2025-10-01T09:50:43.000Z</time>
      </trkpt>
      <trkpt lat="44.42657" lon="4.16716">
        <ele>318</ele>
        <time>2025-10-01T09:51:05.000Z</time>
      </trkpt>
      <trkpt lat="44.42636" lon="4.16727">
        <ele>319</ele>
        <time>2025-10-01T09:51:29.000Z</time>
      </trkpt>
      <trkpt lat="44.42613" lon="4.16728">
        <ele>321</ele>
        <time>2025-10-01T09:51:51.000Z</time>
      </trkpt>
      <trkpt lat="44.42589" lon="4.16728">
        <ele>321</ele>
        <time>2025-10-01T09:52:15.000Z</time>
      </trkpt>
      <trkpt lat="44.42566" lon="4.16727">
        <ele>321</ele>
        <time>2025-10-01T09:52:37.000Z</time>
      </trkpt>
      <trkpt lat="44.42548" lon="4.16711">
        <ele>321</ele>
        <time>2025-10-01T09:52:57.000Z</time>
      </trkpt>
      <trkpt lat="44.42532" lon="4.16688">
        <ele>320</ele>
        <time>2025-10-01T09:53:17.000Z</time>
      </trkpt>
      <trkpt lat="44.42514" lon="4.16669">
        <ele>320</ele>
        <time>2025-10-01T09:53:37.000Z</time>
      </trkpt>
      <trkpt lat="44.42493" lon="4.16658">
        <ele>319</ele>
        <time>2025-10-01T09:53:57.000Z</time>
      </trkpt>
      <trkpt lat="44.4247" lon="4.16655">
        <ele>319</ele>
        <time>2025-10-01T09:54:17.000Z</time>
      </trkpt>
      <trkpt lat="44.42448" lon="4.16658">
        <ele>319</ele>
        <time>2025-10-01T09:54:35.000Z</time>
      </trkpt>
      <trkpt lat="44.42427" lon="4.16657">
        <ele>321</ele>
        <time>2025-10-01T09:54:59.000Z</time>
      </trkpt>
      <trkpt lat="44.42423" lon="4.16685">
        <ele>323</ele>
        <time>2025-10-01T09:55:39.000Z</time>
      </trkpt>
      <trkpt lat="44.42425" lon="4.16718">
        <ele>325</ele>
        <time>2025-10-01T09:56:21.000Z</time>
      </trkpt>
      <trkpt lat="44.42427" lon="4.16748">
        <ele>328</ele>
        <time>2025-10-01T09:57:09.000Z</time>
      </trkpt>
      <trkpt lat="44.42416" lon="4.16775">
        <ele>330</ele>
        <time>2025-10-01T09:57:39.000Z</time>
      </trkpt>
      <trkpt lat="44.42405" lon="4.16803">
        <ele>332</ele>
        <time>2025-10-01T09:58:17.000Z</time>
      </trkpt>
      <trkpt lat="44.42393" lon="4.1683">
        <ele>335</ele>
        <time>2025-10-01T09:58:47.000Z</time>
      </trkpt>
      <trkpt lat="44.4238" lon="4.16857">
        <ele>338</ele>
        <time>2025-10-01T09:59:13.000Z</time>
      </trkpt>
      <trkpt lat="44.42368" lon="4.16885">
        <ele>342</ele>
        <time>2025-10-01T09:59:41.000Z</time>
      </trkpt>
      <trkpt lat="44.42361" lon="4.16914">
        <ele>345</ele>
        <time>2025-10-01T10:00:11.000Z</time>
      </trkpt>
      <trkpt lat="44.4235" lon="4.16942">
        <ele>349</ele>
        <time>2025-10-01T10:00:33.000Z</time>
      </trkpt>
      <trkpt lat="44.42343" lon="4.16972">
        <ele>353</ele>
        <time>2025-10-01T10:01:03.000Z</time>
      </trkpt>
      <trkpt lat="44.42341" lon="4.17003">
        <ele>356</ele>
        <time>2025-10-01T10:01:37.000Z</time>
      </trkpt>
      <trkpt lat="44.42339" lon="4.17034">
        <ele>360</ele>
        <time>2025-10-01T10:02:13.000Z</time>
      </trkpt>
      <trkpt lat="44.42344" lon="4.17059">
        <ele>364</ele>
        <time>2025-10-01T10:02:39.000Z</time>
      </trkpt>
      <trkpt lat="44.42362" lon="4.17047">
        <ele>366</ele>
        <time>2025-10-01T10:03:25.000Z</time>
      </trkpt>
      <trkpt lat="44.42378" lon="4.17023">
        <ele>367</ele>
        <time>2025-10-01T10:03:51.000Z</time>
      </trkpt>
      <trkpt lat="44.42393" lon="4.16998">
        <ele>366</ele>
        <time>2025-10-01T10:04:25.000Z</time>
      </trkpt>
      <trkpt lat="44.42407" lon="4.16984">
        <ele>364</ele>
        <time>2025-10-01T10:08:51.000Z</time>
      </trkpt>
      <trkpt lat="44.42407" lon="4.17009">
        <ele>362</ele>
        <time>2025-10-01T10:14:53.000Z</time>
      </trkpt>
      <trkpt lat="44.42399" lon="4.17039">
        <ele>358</ele>
        <time>2025-10-01T10:15:23.000Z</time>
      </trkpt>
      <trkpt lat="44.42388" lon="4.17068">
        <ele>355</ele>
        <time>2025-10-01T10:16:01.000Z</time>
      </trkpt>
      <trkpt lat="44.42375" lon="4.17093">
        <ele>350</ele>
        <time>2025-10-01T10:16:25.000Z</time>
      </trkpt>
      <trkpt lat="44.42365" lon="4.17115">
        <ele>347</ele>
        <time>2025-10-01T10:16:59.000Z</time>
      </trkpt>
      <trkpt lat="44.42382" lon="4.17115">
        <ele>343</ele>
        <time>2025-10-01T10:17:49.000Z</time>
      </trkpt>
      <trkpt lat="44.42404" lon="4.17105">
        <ele>339</ele>
        <time>2025-10-01T10:18:21.000Z</time>
      </trkpt>
      <trkpt lat="44.42427" lon="4.17096">
        <ele>334</ele>
        <time>2025-10-01T10:19:39.000Z</time>
      </trkpt>
      <trkpt lat="44.42448" lon="4.17083">
        <ele>329</ele>
        <time>2025-10-01T10:20:01.000Z</time>
      </trkpt>
      <trkpt lat="44.42465" lon="4.17073">
        <ele>324</ele>
        <time>2025-10-01T10:20:31.000Z</time>
      </trkpt>
      <trkpt lat="44.42465" lon="4.17098">
        <ele>319</ele>
        <time>2025-10-01T10:21:39.000Z</time>
      </trkpt>
      <trkpt lat="44.42467" lon="4.1713">
        <ele>313</ele>
        <time>2025-10-01T10:22:21.000Z</time>
      </trkpt>
      <trkpt lat="44.4248" lon="4.17158">
        <ele>308</ele>
        <time>2025-10-01T10:22:49.000Z</time>
      </trkpt>
      <trkpt lat="44.42494" lon="4.17185">
        <ele>304</ele>
        <time>2025-10-01T10:23:17.000Z</time>
      </trkpt>
      <trkpt lat="44.42508" lon="4.17211">
        <ele>300</ele>
        <time>2025-10-01T10:23:41.000Z</time>
      </trkpt>
      <trkpt lat="44.42524" lon="4.17234">
        <ele>296</ele>
        <time>2025-10-01T10:24:15.000Z</time>
      </trkpt>
      <trkpt lat="44.42536" lon="4.17259">
        <ele>294</ele>
        <time>2025-10-01T10:24:45.000Z</time>
      </trkpt>
      <trkpt lat="44.42531" lon="4.17291">
        <ele>292</ele>
        <time>2025-10-01T10:25:10.000Z</time>
      </trkpt>
      <trkpt lat="44.4252" lon="4.17318">
        <ele>290</ele>
        <time>2025-10-01T10:25:32.000Z</time>
      </trkpt>
      <trkpt lat="44.42501" lon="4.17336">
        <ele>289</ele>
        <time>2025-10-01T10:25:52.000Z</time>
      </trkpt>
      <trkpt lat="44.42478" lon="4.17346">
        <ele>287</ele>
        <time>2025-10-01T10:26:14.000Z</time>
      </trkpt>
      <trkpt lat="44.42457" lon="4.17359">
        <ele>286</ele>
        <time>2025-10-01T10:26:34.000Z</time>
      </trkpt>
      <trkpt lat="44.42434" lon="4.17368">
        <ele>284</ele>
        <time>2025-10-01T10:26:54.000Z</time>
      </trkpt>
      <trkpt lat="44.42411" lon="4.17374">
        <ele>283</ele>
        <time>2025-10-01T10:27:16.000Z</time>
      </trkpt>
      <trkpt lat="44.42387" lon="4.17382">
        <ele>283</ele>
        <time>2025-10-01T10:27:36.000Z</time>
      </trkpt>
      <trkpt lat="44.42364" lon="4.1739">
        <ele>282</ele>
        <time>2025-10-01T10:27:58.000Z</time>
      </trkpt>
      <trkpt lat="44.42341" lon="4.17398">
        <ele>281</ele>
        <time>2025-10-01T10:28:18.000Z</time>
      </trkpt>
      <trkpt lat="44.42319" lon="4.17403">
        <ele>280</ele>
        <time>2025-10-01T10:28:36.000Z</time>
      </trkpt>
      <trkpt lat="44.42295" lon="4.17403">
        <ele>278</ele>
        <time>2025-10-01T10:28:56.000Z</time>
      </trkpt>
      <trkpt lat="44.42271" lon="4.17404">
        <ele>276</ele>
        <time>2025-10-01T10:29:16.000Z</time>
      </trkpt>
      <trkpt lat="44.42248" lon="4.17402">
        <ele>274</ele>
        <time>2025-10-01T10:29:38.000Z</time>
      </trkpt>
      <trkpt lat="44.42225" lon="4.17402">
        <ele>272</ele>
        <time>2025-10-01T10:29:58.000Z</time>
      </trkpt>
      <trkpt lat="44.42204" lon="4.17409">
        <ele>271</ele>
        <time>2025-10-01T10:30:20.000Z</time>
      </trkpt>
      <trkpt lat="44.42182" lon="4.17413">
        <ele>269</ele>
        <time>2025-10-01T10:30:38.000Z</time>
      </trkpt>
      <trkpt lat="44.42163" lon="4.17397">
        <ele>265</ele>
        <time>2025-10-01T10:30:58.000Z</time>
      </trkpt>
      <trkpt lat="44.42142" lon="4.17384">
        <ele>263</ele>
        <time>2025-10-01T10:31:20.000Z</time>
      </trkpt>
    </trkseg>
  </trk>
</gpx>